Time;durP1;ratioP1;P1;durP2;ratioP2;P2;SDS_P1;SDS_P2;PMS_P1;PMS_P2;Temp;Humidity;BMP_temperature;BMP_pressure;BME280_temperature;BME280_humidity;BME280_pressure;Samples;Min_cycle;Max_cycle;Signal;HPM_P1;HPM_P2
2023/07/27 00:00:45;;;;;;;3.03;2.73;;;;;;;;;;5061123;28;20212;-80
2023/07/27 00:03:11;;;;;;;4.73;3.00;;;;;;;;;;5059719;28;20266;-81
2023/07/27 00:05:36;;;;;;;5.60;3.10;;;;;;;;;;5012818;28;20633;-81
2023/07/27 00:08:02;;;;;;;3.00;2.80;;;;;;;;;;5032626;28;20632;-80
2023/07/27 00:10:28;;;;;;;10.70;3.30;;;;;;;;;;5049913;28;20262;-80
2023/07/27 00:12:54;;;;;;;3.87;3.47;;;;;;;;;;5027110;28;20224;-80
2023/07/27 00:15:20;;;;;;;4.40;3.57;;;;;;;;;;5011300;28;20363;-79
2023/07/27 00:17:45;;;;;;;5.30;3.53;;;;;;;;;;5022187;28;20224;-79
2023/07/27 00:20:11;;;;;;;4.07;3.70;;;;;;;;;;5014353;28;20227;-78
2023/07/27 00:22:37;;;;;;;4.33;3.53;;;;;;;;;;5030293;28;20229;-79
2023/07/27 00:25:02;;;;;;;3.70;3.37;;;;;;;;;;5030592;28;20219;-79
2023/07/27 00:27:28;;;;;;;3.67;3.37;;;;;;;;;;5021383;28;20231;-79
2023/07/27 00:29:54;;;;;;;4.10;3.70;;;;;;;;;;5024936;28;20243;-78
2023/07/27 00:32:19;;;;;;;4.50;3.90;;;;;;;;;;5025521;28;20596;-78
2023/07/27 00:34:45;;;;;;;4.47;4.07;;;;;;;;;;5016178;28;20228;-79
2023/07/27 00:37:14;;;;;;;4.57;4.17;;;;;;;;;;5026190;28;20219;-78
2023/07/27 00:39:40;;;;;;;4.20;3.77;;;;;;;;;;5006439;28;20212;-78
2023/07/27 00:42:07;;;;;;;5.73;4.37;;;;;;;;;;5021627;28;20581;-79
2023/07/27 00:44:32;;;;;;;4.93;4.20;;;;;;;;;;5011847;28;20220;-79
2023/07/27 00:46:58;;;;;;;5.10;4.60;;;;;;;;;;5016248;28;20616;-78
2023/07/27 00:49:23;;;;;;;4.50;4.20;;;;;;;;;;4996599;28;20244;-79
2023/07/27 00:51:51;;;;;;;4.53;4.13;;;;;;;;;;5008190;28;20244;-80
2023/07/27 00:54:20;;;;;;;4.50;4.10;;;;;;;;;;4999879;28;20745;-78
2023/07/27 00:56:48;;;;;;;4.97;4.07;;;;;;;;;;5010547;28;20223;-78
2023/07/27 00:59:14;;;;;;;4.93;4.27;;;;;;;;;;5013054;28;20287;-79
2023/07/27 01:01:42;;;;;;;7.30;4.23;;;;;;;;;;5014472;28;20223;-78
2023/07/27 01:04:07;;;;;;;5.43;4.23;;;;;;;;;;5029334;28;20211;-78
2023/07/27 01:06:35;;;;;;;5.27;3.80;;;;;;;;;;5026276;28;20222;-77
2023/07/27 01:09:08;;;;;;;4.97;4.47;;;;;;;;;;5026023;28;20228;-79
2023/07/27 01:11:48;;;;;;;5.07;4.50;;;;;;;;;;4996993;28;20611;-79
2023/07/27 01:14:24;;;;;;;4.20;3.80;;;;;;;;;;4996757;28;21282;-79
2023/07/27 01:17:09;;;;;;;4.07;3.67;;;;;;;;;;5040145;28;20647;-79
2023/07/27 01:19:59;;;;;;;7.83;3.70;;;;;;;;;;5006199;28;20728;-79
2023/07/27 01:22:31;;;;;;;4.10;3.40;;;;;;;;;;5030469;28;20251;-78
2023/07/27 01:25:34;;;;;;;3.97;3.43;;;;;;;;;;5039866;28;20231;-79
2023/07/27 01:28:02;;;;;;;3.77;3.40;;;;;;;;;;5039341;28;20934;-79
2023/07/27 01:30:28;;;;;;;4.70;3.40;;;;;;;;;;5004581;28;20223;-80
2023/07/27 01:33:04;;;;;;;4.27;3.87;;;;;;;;;;5028893;28;20727;-79
2023/07/27 01:35:51;;;;;;;4.23;3.43;;;;;;;;;;5005410;28;20890;-79
2023/07/27 01:38:19;;;;;;;5.53;3.50;;;;;;;;;;5006702;28;20218;-79
2023/07/27 01:40:45;;;;;;;4.53;4.13;;;;;;;;;;4996411;28;20673;-79
2023/07/27 01:43:10;;;;;;;3.67;3.37;;;;;;;;;;5019805;28;20232;-80
2023/07/27 01:45:38;;;;;;;4.90;3.13;;;;;;;;;;5014692;28;20245;-80
2023/07/27 01:48:04;;;;;;;3.27;3.07;;;;;;;;;;5028885;28;20216;-79
2023/07/27 01:50:30;;;;;;;4.17;3.30;;;;;;;;;;4986637;28;20220;-80
2023/07/27 01:52:58;;;;;;;4.40;3.23;;;;;;;;;;5029656;28;20242;-80
2023/07/27 01:55:28;;;;;;;3.67;3.30;;;;;;;;;;5009788;28;20227;-79
2023/07/27 01:57:59;;;;;;;3.80;3.47;;;;;;;;;;5018771;28;20223;-79
2023/07/27 02:00:26;;;;;;;4.63;2.90;;;;;;;;;;5029140;28;20216;-79
2023/07/27 02:02:54;;;;;;;3.53;3.23;;;;;;;;;;5001002;28;20219;-80
2023/07/27 02:05:22;;;;;;;3.03;2.73;;;;;;;;;;5010024;28;20567;-79
2023/07/27 02:07:50;;;;;;;3.00;2.80;;;;;;;;;;5012976;28;20211;-79
2023/07/27 02:10:18;;;;;;;2.50;2.30;;;;;;;;;;5010896;28;20226;-79
2023/07/27 02:12:46;;;;;;;2.67;2.47;;;;;;;;;;4996615;28;20226;-78
2023/07/27 02:15:14;;;;;;;2.23;2.13;;;;;;;;;;5010831;28;20220;-79
2023/07/27 02:17:41;;;;;;;3.80;2.97;;;;;;;;;;5023326;28;20215;-80
2023/07/27 02:20:16;;;;;;;3.27;2.93;;;;;;;;;;5014033;28;20243;-79
2023/07/27 02:22:42;;;;;;;3.40;2.93;;;;;;;;;;5026758;28;20218;-80
2023/07/27 02:25:11;;;;;;;3.30;3.00;;;;;;;;;;5013577;28;20226;-80
2023/07/27 02:27:36;;;;;;;3.73;3.50;;;;;;;;;;5008144;28;20219;-80
2023/07/27 02:30:02;;;;;;;4.60;3.97;;;;;;;;;;4998765;28;20227;-80
2023/07/27 02:32:28;;;;;;;5.13;3.93;;;;;;;;;;5017222;28;20295;-80
2023/07/27 02:34:54;;;;;;;4.03;3.63;;;;;;;;;;5037209;28;20211;-80
2023/07/27 02:37:23;;;;;;;3.43;3.13;;;;;;;;;;5027388;28;20220;-80
2023/07/27 02:39:48;;;;;;;5.80;3.33;;;;;;;;;;5022721;28;20228;-80
2023/07/27 02:42:14;;;;;;;3.57;3.23;;;;;;;;;;5011404;28;20300;-78
2023/07/27 02:44:42;;;;;;;3.60;3.33;;;;;;;;;;5020549;28;20306;-78
2023/07/27 02:47:07;;;;;;;3.50;3.20;;;;;;;;;;5017719;28;20686;-78
2023/07/27 02:49:33;;;;;;;4.10;3.60;;;;;;;;;;4993421;28;20232;-78
2023/07/27 02:51:58;;;;;;;3.90;3.50;;;;;;;;;;5031191;28;20716;-78
2023/07/27 02:54:24;;;;;;;3.50;3.20;;;;;;;;;;5003910;28;20230;-79
2023/07/27 02:56:51;;;;;;;3.83;3.60;;;;;;;;;;5045352;28;20587;-76
2023/07/27 02:59:23;;;;;;;4.13;3.73;;;;;;;;;;5037572;28;20247;-75
2023/07/27 03:01:53;;;;;;;5.00;3.90;;;;;;;;;;4989654;28;20207;-76
2023/07/27 03:04:24;;;;;;;4.47;4.07;;;;;;;;;;5045373;28;20231;-78
2023/07/27 03:06:49;;;;;;;4.80;4.40;;;;;;;;;;5016634;28;20215;-76
2023/07/27 03:09:20;;;;;;;5.13;4.63;;;;;;;;;;5042233;28;20223;-78
2023/07/27 03:11:47;;;;;;;4.37;3.97;;;;;;;;;;5048310;28;20235;-76
2023/07/27 03:14:15;;;;;;;4.40;3.97;;;;;;;;;;5036009;28;20218;-78
2023/07/27 03:16:43;;;;;;;4.93;4.53;;;;;;;;;;5029925;28;20216;-78
2023/07/27 03:19:11;;;;;;;4.13;3.83;;;;;;;;;;5023884;28;20212;-78
2023/07/27 03:21:36;;;;;;;4.33;3.90;;;;;;;;;;4999419;28;20281;-77
2023/07/27 03:24:02;;;;;;;4.53;4.13;;;;;;;;;;5010154;28;20224;-78
2023/07/27 03:26:28;;;;;;;4.60;4.20;;;;;;;;;;5029636;28;20219;-80
2023/07/27 03:28:55;;;;;;;6.70;4.60;;;;;;;;;;5027689;28;20227;-79
2023/07/27 03:31:26;;;;;;;4.97;4.40;;;;;;;;;;4997769;28;20208;-78
2023/07/27 03:33:55;;;;;;;4.60;4.20;;;;;;;;;;5031627;28;20231;-80
2023/07/27 03:36:21;;;;;;;7.80;4.97;;;;;;;;;;5014021;28;20219;-78
2023/07/27 03:38:46;;;;;;;5.90;4.50;;;;;;;;;;5015494;28;20218;-79
2023/07/27 03:41:12;;;;;;;5.00;4.53;;;;;;;;;;5009232;28;20220;-78
2023/07/27 03:43:38;;;;;;;5.20;4.70;;;;;;;;;;5015485;28;20227;-80
2023/07/27 03:46:06;;;;;;;5.10;4.63;;;;;;;;;;5029734;28;20224;-79
2023/07/27 03:48:32;;;;;;;9.67;4.77;;;;;;;;;;5005020;28;20255;-79
2023/07/27 03:51:01;;;;;;;4.80;4.30;;;;;;;;;;5014434;28;20224;-79
2023/07/27 03:53:32;;;;;;;6.53;5.20;;;;;;;;;;5009454;28;20231;-78
2023/07/27 03:56:01;;;;;;;5.37;4.87;;;;;;;;;;5015104;28;20220;-79
2023/07/27 03:58:27;;;;;;;6.03;5.10;;;;;;;;;;5025623;28;20231;-79
2023/07/27 04:04:42;;;;;;;4.90;4.50;;;;;;;;;;5038955;28;20233;-79
2023/07/27 04:07:08;;;;;;;5.37;4.90;;;;;;;;;;5022740;28;20227;-80
2023/07/27 04:09:34;;;;;;;5.80;4.90;;;;;;;;;;5016784;28;20240;-76
2023/07/27 04:12:00;;;;;;;5.27;4.77;;;;;;;;;;5012857;28;20219;-79
2023/07/27 04:14:25;;;;;;;5.77;5.27;;;;;;;;;;5022949;28;20227;-79
2023/07/27 04:16:53;;;;;;;5.60;5.10;;;;;;;;;;5029777;28;20220;-79
2023/07/27 04:19:24;;;;;;;5.67;5.17;;;;;;;;;;5030463;28;20291;-79
2023/07/27 04:21:50;;;;;;;6.00;5.40;;;;;;;;;;5030710;28;20228;-78
2023/07/27 04:24:16;;;;;;;5.60;5.10;;;;;;;;;;5020813;28;20242;-76
2023/07/27 04:26:41;;;;;;;6.20;5.70;;;;;;;;;;5047080;28;20219;-79
2023/07/27 04:29:07;;;;;;;5.57;4.93;;;;;;;;;;5011511;28;20241;-77
2023/07/27 04:31:32;;;;;;;5.57;5.13;;;;;;;;;;5046304;28;20249;-77
2023/07/27 04:34:00;;;;;;;6.23;5.60;;;;;;;;;;5031276;28;20212;-76
2023/07/27 04:36:26;;;;;;;5.97;5.37;;;;;;;;;;5031533;28;20606;-80
2023/07/27 04:38:51;;;;;;;6.30;5.70;;;;;;;;;;5032118;28;20244;-79
2023/07/27 04:41:17;;;;;;;6.07;5.47;;;;;;;;;;5003545;28;20223;-80
2023/07/27 04:43:43;;;;;;;6.00;5.43;;;;;;;;;;5029822;28;20235;-76
2023/07/27 04:46:09;;;;;;;6.10;5.60;;;;;;;;;;5029469;28;20272;-77
2023/07/27 04:48:35;;;;;;;6.50;5.90;;;;;;;;;;5043924;28;20230;-77
2023/07/27 04:51:02;;;;;;;6.00;5.50;;;;;;;;;;5005310;28;20216;-77
2023/07/27 04:53:30;;;;;;;6.90;6.13;;;;;;;;;;5017164;28;20227;-79
2023/07/27 04:55:58;;;;;;;6.93;6.20;;;;;;;;;;5030829;28;20616;-80
2023/07/27 04:58:24;;;;;;;6.27;5.77;;;;;;;;;;5028100;28;20234;-79
2023/07/27 05:00:53;;;;;;;7.40;6.10;;;;;;;;;;5024603;28;20253;-80
2023/07/27 05:03:19;;;;;;;6.63;6.03;;;;;;;;;;5015167;28;20297;-79
2023/07/27 05:05:44;;;;;;;6.97;5.90;;;;;;;;;;5021827;28;20792;-80
2023/07/27 05:08:12;;;;;;;6.63;5.93;;;;;;;;;;5038764;28;20223;-80
2023/07/27 05:10:40;;;;;;;6.10;5.37;;;;;;;;;;5018954;28;20235;-77
2023/07/27 05:13:11;;;;;;;8.13;5.90;;;;;;;;;;5028142;28;20231;-77
2023/07/27 05:15:39;;;;;;;6.73;5.73;;;;;;;;;;5035139;28;20285;-75
2023/07/27 05:18:04;;;;;;;6.27;5.50;;;;;;;;;;5013193;28;20223;-77
2023/07/27 05:20:32;;;;;;;6.67;5.90;;;;;;;;;;5036350;28;20676;-77
2023/07/27 05:23:00;;;;;;;6.87;5.70;;;;;;;;;;5028620;28;20997;-80
2023/07/27 05:25:25;;;;;;;6.60;5.73;;;;;;;;;;4996096;28;20224;-79
2023/07/27 05:27:51;;;;;;;5.83;5.33;;;;;;;;;;5024529;28;20234;-79
2023/07/27 05:30:16;;;;;;;5.73;5.23;;;;;;;;;;5009028;28;20219;-80
2023/07/27 05:32:44;;;;;;;9.47;5.33;;;;;;;;;;5023152;28;20231;-78
2023/07/27 05:35:12;;;;;;;5.60;5.10;;;;;;;;;;5028056;28;20220;-78
2023/07/27 05:37:46;;;;;;;6.32;5.60;;;;;;;;;;5004430;28;20274;-78
2023/07/27 05:40:14;;;;;;;5.53;5.03;;;;;;;;;;5004596;28;20269;-81
2023/07/27 05:42:40;;;;;;;5.43;4.97;;;;;;;;;;5028297;28;20235;-79
2023/07/27 05:45:06;;;;;;;5.15;4.70;;;;;;;;;;5011720;28;20235;-79
2023/07/27 05:47:32;;;;;;;5.40;4.93;;;;;;;;;;5004184;28;20239;-79
2023/07/27 05:50:00;;;;;;;8.27;4.80;;;;;;;;;;5043244;28;20231;-79
2023/07/27 05:52:26;;;;;;;5.30;4.90;;;;;;;;;;5002730;28;20246;-80
2023/07/27 05:54:53;;;;;;;6.03;5.40;;;;;;;;;;5029180;28;20227;-80
2023/07/27 05:57:19;;;;;;;7.20;5.70;;;;;;;;;;5014109;28;20219;-78
2023/07/27 05:59:47;;;;;;;6.43;5.43;;;;;;;;;;5012467;28;20296;-78
2023/07/27 06:02:13;;;;;;;5.27;4.83;;;;;;;;;;5034378;28;20227;-80
2023/07/27 06:04:43;;;;;;;6.30;5.70;;;;;;;;;;5036006;28;20307;-77
2023/07/27 06:07:08;;;;;;;5.57;5.00;;;;;;;;;;5035194;28;20597;-80
2023/07/27 06:09:36;;;;;;;7.43;5.20;;;;;;;;;;5035273;28;20239;-78
2023/07/27 06:12:11;;;;;;;5.10;4.47;;;;;;;;;;5035391;28;20219;-80
2023/07/27 06:14:39;;;;;;;6.55;4.90;;;;;;;;;;5018516;28;20853;-80
2023/07/27 06:17:05;;;;;;;5.00;4.50;;;;;;;;;;5045665;28;20217;-80
2023/07/27 06:19:31;;;;;;;5.10;4.68;;;;;;;;;;5013726;28;20779;-81
2023/07/27 06:21:57;;;;;;;5.03;4.53;;;;;;;;;;5030334;28;20334;-80
2023/07/27 06:24:24;;;;;;;5.72;4.20;;;;;;;;;;5011862;28;20231;-79
2023/07/27 06:26:53;;;;;;;5.57;4.50;;;;;;;;;;5034652;28;20223;-81
2023/07/27 06:29:18;;;;;;;4.75;4.25;;;;;;;;;;5012087;28;20224;-78
2023/07/27 06:31:44;;;;;;;4.63;4.23;;;;;;;;;;5026253;28;20262;-80
2023/07/27 06:34:10;;;;;;;4.57;4.15;;;;;;;;;;5017345;28;21009;-80
2023/07/27 06:36:35;;;;;;;5.05;4.53;;;;;;;;;;5045948;28;20227;-80
2023/07/27 06:39:05;;;;;;;7.40;4.88;;;;;;;;;;5011818;28;20206;-78
2023/07/27 06:41:30;;;;;;;4.68;4.28;;;;;;;;;;5004240;28;20219;-79
2023/07/27 06:43:58;;;;;;;5.18;4.78;;;;;;;;;;5016989;28;20283;-79
2023/07/27 06:46:24;;;;;;;5.13;4.63;;;;;;;;;;5048394;28;20223;-81
2023/07/27 06:48:50;;;;;;;5.55;5.05;;;;;;;;;;5036167;28;20216;-81
2023/07/27 06:51:20;;;;;;;6.55;5.55;;;;;;;;;;5026244;28;20318;-81
2023/07/27 06:53:45;;;;;;;5.72;5.22;;;;;;;;;;5046584;28;20238;-81
2023/07/27 06:56:11;;;;;;;5.40;4.65;;;;;;;;;;5020675;28;20216;-80
2023/07/27 06:58:36;;;;;;;5.00;4.68;;;;;;;;;;5046701;28;20285;-81
2023/07/27 07:01:02;;;;;;;5.90;5.28;;;;;;;;;;5022377;28;20729;-81
2023/07/27 07:03:28;;;;;;;5.68;4.70;;;;;;;;;;5038898;28;20238;-81
2023/07/27 07:05:54;;;;;;;6.15;5.05;;;;;;;;;;5031155;28;20217;-81
2023/07/27 07:08:23;;;;;;;6.07;5.00;;;;;;;;;;5011628;28;20216;-82
2023/07/27 07:10:51;;;;;;;6.07;5.47;;;;;;;;;;5021365;28;20242;-82
2023/07/27 07:13:17;;;;;;;5.05;4.55;;;;;;;;;;5041320;28;20211;-81
2023/07/27 07:15:43;;;;;;;6.28;5.28;;;;;;;;;;5036720;28;20235;-83
2023/07/27 07:18:08;;;;;;;5.82;4.85;;;;;;;;;;5027778;28;20217;-82
2023/07/27 07:20:34;;;;;;;5.40;4.90;;;;;;;;;;5040866;28;20231;-81
2023/07/27 07:22:59;;;;;;;8.40;4.85;;;;;;;;;;5001368;28;20230;-79
2023/07/27 07:25:25;;;;;;;5.30;4.85;;;;;;;;;;5037554;28;20588;-80
2023/07/27 07:27:53;;;;;;;5.10;4.60;;;;;;;;;;5053053;28;20326;-81
2023/07/27 07:30:18;;;;;;;4.95;4.53;;;;;;;;;;5052834;28;20227;-79
2023/07/27 07:32:46;;;;;;;6.47;4.63;;;;;;;;;;5028532;28;20584;-82
2023/07/27 07:35:11;;;;;;;8.05;4.57;;;;;;;;;;5020887;28;20223;-81
2023/07/27 07:37:37;;;;;;;6.22;4.57;;;;;;;;;;5024001;28;20215;-81
2023/07/27 07:40:03;;;;;;;4.50;4.10;;;;;;;;;;5028727;28;20221;-78
2023/07/27 07:42:32;;;;;;;7.35;4.70;;;;;;;;;;5031729;28;20259;-79
2023/07/27 07:45:00;;;;;;;4.82;4.15;;;;;;;;;;5016719;28;20220;-80
2023/07/27 07:47:27;;;;;;;6.57;4.93;;;;;;;;;;5051855;28;20502;-80
2023/07/27 07:49:53;;;;;;;4.97;4.57;;;;;;;;;;5023415;28;20236;-78
2023/07/27 07:52:21;;;;;;;4.88;4.47;;;;;;;;;;5001613;28;20234;-79
2023/07/27 07:54:46;;;;;;;7.53;5.47;;;;;;;;;;5041024;28;20223;-79
2023/07/27 07:57:19;;;;;;;7.57;4.70;;;;;;;;;;5010819;28;20238;-79
2023/07/27 07:59:45;;;;;;;5.43;4.25;;;;;;;;;;5044607;28;20227;-78
2023/07/27 08:02:14;;;;;;;5.03;4.57;;;;;;;;;;5021422;28;20220;-80
2023/07/27 08:04:39;;;;;;;4.57;4.28;;;;;;;;;;5041109;28;20219;-79
2023/07/27 08:07:05;;;;;;;6.75;4.88;;;;;;;;;;5033721;28;20212;-79
2023/07/27 08:09:31;;;;;;;6.20;5.25;;;;;;;;;;5020041;28;20617;-78
2023/07/27 08:11:56;;;;;;;5.28;4.78;;;;;;;;;;5015452;28;20280;-78
2023/07/27 08:14:24;;;;;;;5.72;5.15;;;;;;;;;;5051223;28;20227;-81
2023/07/27 08:16:50;;;;;;;5.53;4.95;;;;;;;;;;5022063;28;20230;-78
2023/07/27 08:19:15;;;;;;;7.75;5.05;;;;;;;;;;5030786;28;20222;-79
2023/07/27 08:21:44;;;;;;;11.38;4.65;;;;;;;;;;5045733;28;20235;-79
2023/07/27 08:24:11;;;;;;;7.22;4.65;;;;;;;;;;5023317;28;20212;-79
2023/07/27 08:26:42;;;;;;;7.05;5.13;;;;;;;;;;5028875;28;20223;-77
2023/07/27 08:29:09;;;;;;;5.68;4.82;;;;;;;;;;5019045;28;20224;-78
2023/07/27 08:31:38;;;;;;;5.05;4.65;;;;;;;;;;5012380;28;20234;-79
2023/07/27 08:34:03;;;;;;;4.88;4.45;;;;;;;;;;5020396;28;20332;-78
2023/07/27 08:36:31;;;;;;;4.40;4.00;;;;;;;;;;5016428;28;20232;-78
2023/07/27 08:39:00;;;;;;;5.38;4.88;;;;;;;;;;5030570;28;20281;-77
2023/07/27 08:41:28;;;;;;;4.63;4.22;;;;;;;;;;5029217;28;20231;-79
2023/07/27 08:43:53;;;;;;;4.53;4.13;;;;;;;;;;5009210;28;20230;-79
2023/07/27 08:46:21;;;;;;;6.55;4.80;;;;;;;;;;5015562;28;20238;-78
2023/07/27 08:48:48;;;;;;;4.78;4.38;;;;;;;;;;5045693;28;20259;-78
2023/07/27 08:51:16;;;;;;;4.38;3.97;;;;;;;;;;5019064;28;20311;-79
2023/07/27 08:53:41;;;;;;;4.53;4.13;;;;;;;;;;5026538;28;20278;-78
2023/07/27 08:56:09;;;;;;;13.93;4.47;;;;;;;;;;5018431;28;20223;-80
2023/07/27 08:58:37;;;;;;;5.18;4.68;;;;;;;;;;5023390;28;20223;-79
2023/07/27 09:01:05;;;;;;;4.75;4.32;;;;;;;;;;5038331;28;20305;-80
2023/07/27 09:03:33;;;;;;;8.07;4.57;;;;;;;;;;5036754;28;20231;-79
2023/07/27 09:06:02;;;;;;;7.15;5.13;;;;;;;;;;5024287;28;20541;-79
2023/07/27 09:08:29;;;;;;;5.20;4.70;;;;;;;;;;5031949;28;20227;-78
2023/07/27 09:10:56;;;;;;;4.72;4.25;;;;;;;;;;5034390;28;20218;-78
2023/07/27 09:13:31;;;;;;;5.15;4.65;;;;;;;;;;5022941;28;20223;-78
2023/07/27 09:15:56;;;;;;;4.60;4.20;;;;;;;;;;4996522;28;20314;-78
2023/07/27 09:18:22;;;;;;;5.03;4.63;;;;;;;;;;5041507;28;20258;-78
2023/07/27 09:20:50;;;;;;;5.97;4.70;;;;;;;;;;5038593;28;20227;-76
2023/07/27 09:23:19;;;;;;;5.10;4.50;;;;;;;;;;5035003;28;20239;-78
2023/07/27 09:25:54;;;;;;;4.85;4.40;;;;;;;;;;5038476;28;20247;-78
2023/07/27 09:28:25;;;;;;;4.43;4.03;;;;;;;;;;5025263;28;24734;-78
2023/07/27 09:31:00;;;;;;;4.45;4.05;;;;;;;;;;5035820;28;20232;-77
2023/07/27 09:33:28;;;;;;;5.47;3.92;;;;;;;;;;5027176;28;20234;-78
2023/07/27 09:35:59;;;;;;;5.43;4.13;;;;;;;;;;5055139;28;20306;-76
2023/07/27 09:38:25;;;;;;;4.38;3.92;;;;;;;;;;5035613;28;20222;-79
2023/07/27 09:40:51;;;;;;;5.20;4.22;;;;;;;;;;5020187;28;20230;-77
2023/07/27 09:43:28;;;;;;;6.10;4.20;;;;;;;;;;5028377;28;20220;-78
2023/07/27 09:45:59;;;;;;;6.38;4.10;;;;;;;;;;5019791;28;20234;-79
2023/07/27 09:48:25;;;;;;;4.30;3.90;;;;;;;;;;5029853;28;20309;-79
2023/07/27 09:50:52;;;;;;;6.82;4.20;;;;;;;;;;5018480;28;20738;-78
2023/07/27 09:53:21;;;;;;;6.32;4.28;;;;;;;;;;5034779;28;20246;-79
2023/07/27 09:55:47;;;;;;;5.03;4.53;;;;;;;;;;5005039;28;20256;-79
2023/07/27 09:58:13;;;;;;;4.18;3.88;;;;;;;;;;5014899;28;20226;-78
2023/07/27 10:00:40;;;;;;;4.57;4.18;;;;;;;;;;5023097;28;20234;-80
2023/07/27 10:03:09;;;;;;;5.78;3.88;;;;;;;;;;4997405;28;20243;-80
2023/07/27 10:05:41;;;;;;;4.18;3.80;;;;;;;;;;5045108;28;20250;-78
2023/07/27 10:08:06;;;;;;;3.90;3.40;;;;;;;;;;5006443;28;20307;-78
2023/07/27 10:10:34;;;;;;;3.85;3.55;;;;;;;;;;5002203;28;20262;-76
2023/07/27 10:13:26;;;;;;;4.22;3.30;;;;;;;;;;5022392;28;20243;-78
2023/07/27 10:15:53;;;;;;;4.07;3.35;;;;;;;;;;4991732;28;20269;-79
2023/07/27 10:18:26;;;;;;;3.17;2.90;;;;;;;;;;5028813;28;20226;-78
2023/07/27 10:20:52;;;;;;;3.35;2.70;;;;;;;;;;5029787;28;20257;-77
2023/07/27 10:23:20;;;;;;;3.42;3.13;;;;;;;;;;5004637;28;20223;-78
2023/07/27 10:25:58;;;;;;;3.17;2.88;;;;;;;;;;5013087;28;20681;-78
2023/07/27 10:28:48;;;;;;;3.42;2.92;;;;;;;;;;5029698;28;20619;-80
2023/07/27 10:31:16;;;;;;;2.90;2.60;;;;;;;;;;5004842;28;20227;-81
2023/07/27 10:33:52;;;;;;;5.07;2.90;;;;;;;;;;5028936;28;20242;-78
2023/07/27 10:36:19;;;;;;;2.70;2.50;;;;;;;;;;5038618;28;20915;-80
2023/07/27 10:38:55;;;;;;;2.90;2.65;;;;;;;;;;5021600;28;20253;-80
2023/07/27 10:41:22;;;;;;;2.55;2.00;;;;;;;;;;5038141;28;20219;-75
2023/07/27 10:44:08;;;;;;;2.70;2.47;;;;;;;;;;5037079;28;20235;-76
2023/07/27 10:46:39;;;;;;;4.38;2.63;;;;;;;;;;5053992;28;20419;-78
2023/07/27 10:49:17;;;;;;;2.38;2.17;;;;;;;;;;5021045;28;20798;-77
2023/07/27 10:51:44;;;;;;;3.90;2.53;;;;;;;;;;5046718;28;20232;-79
2023/07/27 10:54:12;;;;;;;2.33;2.13;;;;;;;;;;5042151;28;20216;-79
2023/07/27 10:56:38;;;;;;;5.55;2.45;;;;;;;;;;5028215;28;20227;-79
2023/07/27 10:59:04;;;;;;;3.38;2.53;;;;;;;;;;5042000;28;20230;-79
2023/07/27 11:01:33;;;;;;;4.35;2.85;;;;;;;;;;5013414;28;20228;-77
2023/07/27 11:04:00;;;;;;;3.03;2.70;;;;;;;;;;5016665;28;20232;-79
2023/07/27 11:06:29;;;;;;;4.35;2.70;;;;;;;;;;5014796;28;20224;-79
2023/07/27 11:08:57;;;;;;;3.00;2.70;;;;;;;;;;5029511;28;20325;-79
2023/07/27 11:11:29;;;;;;;3.80;3.00;;;;;;;;;;5010632;28;20239;-78
2023/07/27 11:14:05;;;;;;;3.10;2.88;;;;;;;;;;5036299;28;20297;-76
2023/07/27 11:16:31;;;;;;;3.40;2.90;;;;;;;;;;5018414;28;20231;-78
2023/07/27 11:19:00;;;;;;;3.53;3.22;;;;;;;;;;5013836;28;20223;-78
2023/07/27 11:21:26;;;;;;;3.63;3.33;;;;;;;;;;5025084;28;20228;-78
2023/07/27 11:23:51;;;;;;;3.55;3.25;;;;;;;;;;5013091;28;20269;-79
2023/07/27 11:26:17;;;;;;;3.83;3.45;;;;;;;;;;5030772;28;20279;-79
2023/07/27 11:28:45;;;;;;;3.95;3.60;;;;;;;;;;5044323;28;20231;-78
2023/07/27 11:31:15;;;;;;;3.67;3.38;;;;;;;;;;5014014;28;20292;-80
2023/07/27 11:33:42;;;;;;;3.25;2.95;;;;;;;;;;5028530;28;20228;-78
2023/07/27 11:36:08;;;;;;;3.90;3.45;;;;;;;;;;5010314;28;20274;-79
2023/07/27 11:38:36;;;;;;;5.60;3.85;;;;;;;;;;5012897;28;20226;-78
2023/07/27 11:41:01;;;;;;;3.90;3.30;;;;;;;;;;5047697;28;20212;-78
2023/07/27 11:43:27;;;;;;;4.20;3.65;;;;;;;;;;5029402;28;20950;-79
2023/07/27 11:45:56;;;;;;;3.45;3.15;;;;;;;;;;5034512;28;20222;-79
2023/07/27 11:48:28;;;;;;;3.60;3.30;;;;;;;;;;5031447;28;20227;-77
2023/07/27 11:50:59;;;;;;;3.67;3.38;;;;;;;;;;5013613;28;20281;-79
2023/07/27 11:53:30;;;;;;;4.35;3.95;;;;;;;;;;5033793;28;20242;-78
2023/07/27 11:55:58;;;;;;;3.80;3.50;;;;;;;;;;5031256;28;20733;-77
2023/07/27 11:58:26;;;;;;;3.47;3.17;;;;;;;;;;5020529;28;20236;-79
2023/07/27 12:00:55;;;;;;;3.50;3.17;;;;;;;;;;5014921;28;20925;-78
2023/07/27 12:03:24;;;;;;;3.28;2.70;;;;;;;;;;4992852;28;20228;-77
2023/07/27 12:05:56;;;;;;;2.35;2.15;;;;;;;;;;5014001;28;20232;-79
2023/07/27 12:08:24;;;;;;;2.30;2.20;;;;;;;;;;5031266;28;20223;-77
2023/07/27 12:10:51;;;;;;;2.50;2.30;;;;;;;;;;5027727;28;20260;-78
2023/07/27 12:13:18;;;;;;;2.47;2.10;;;;;;;;;;5006573;28;20275;-78
2023/07/27 12:15:44;;;;;;;2.00;1.90;;;;;;;;;;5026657;28;20297;-78
2023/07/27 12:18:10;;;;;;;2.10;2.00;;;;;;;;;;5016591;28;20239;-76
2023/07/27 12:20:35;;;;;;;2.28;2.03;;;;;;;;;;5034279;28;20310;-78
2023/07/27 12:23:01;;;;;;;2.38;2.17;;;;;;;;;;5016183;28;20721;-77
2023/07/27 12:25:29;;;;;;;2.15;2.03;;;;;;;;;;5013551;28;20223;-78
2023/07/27 12:27:55;;;;;;;1.98;1.88;;;;;;;;;;5011546;28;20227;-78
2023/07/27 12:30:21;;;;;;;2.30;2.10;;;;;;;;;;5030687;28;20220;-78
2023/07/27 12:32:51;;;;;;;2.53;2.20;;;;;;;;;;5019200;28;20528;-77
2023/07/27 12:35:17;;;;;;;2.20;2.10;;;;;;;;;;5028252;28;20258;-78
2023/07/27 12:37:45;;;;;;;1.92;1.83;;;;;;;;;;5029531;28;20227;-79
2023/07/27 12:40:18;;;;;;;6.07;2.67;;;;;;;;;;5008276;28;20235;-78
2023/07/27 12:42:43;;;;;;;2.88;2.55;;;;;;;;;;5024757;28;20239;-78
2023/07/27 12:45:09;;;;;;;2.70;2.50;;;;;;;;;;5013699;28;20231;-78
2023/07/27 12:47:37;;;;;;;2.25;2.10;;;;;;;;;;5030449;28;20580;-78
2023/07/27 12:50:03;;;;;;;2.72;2.53;;;;;;;;;;5038545;28;20712;-78
2023/07/27 12:52:29;;;;;;;2.95;2.72;;;;;;;;;;5042990;28;20223;-79
2023/07/27 12:54:54;;;;;;;2.40;2.20;;;;;;;;;;5025024;28;20222;-78
2023/07/27 12:57:21;;;;;;;2.53;2.33;;;;;;;;;;5044925;28;20342;-78
2023/07/27 12:59:51;;;;;;;2.63;2.42;;;;;;;;;;5031522;28;20242;-77
2023/07/27 13:02:18;;;;;;;2.78;2.40;;;;;;;;;;5028838;28;20698;-78
2023/07/27 13:04:45;;;;;;;2.38;2.17;;;;;;;;;;4998817;28;20277;-76
2023/07/27 13:07:13;;;;;;;2.67;2.47;;;;;;;;;;5021187;28;20247;-78
2023/07/27 13:09:41;;;;;;;2.90;2.70;;;;;;;;;;5015488;28;20363;-77
2023/07/27 13:12:10;;;;;;;2.60;2.40;;;;;;;;;;5015323;28;20232;-76
2023/07/27 13:14:37;;;;;;;2.60;2.40;;;;;;;;;;5023130;28;20232;-77
2023/07/27 13:17:03;;;;;;;2.13;2.03;;;;;;;;;;5055045;28;20250;-78
2023/07/27 13:19:32;;;;;;;2.67;2.47;;;;;;;;;;5044497;28;20653;-76
2023/07/27 13:21:58;;;;;;;2.53;2.33;;;;;;;;;;5056847;28;20228;-77
2023/07/27 13:24:23;;;;;;;2.10;2.00;;;;;;;;;;5035689;28;20243;-78
2023/07/27 13:27:03;;;;;;;2.28;2.10;;;;;;;;;;5040308;28;20226;-78
2023/07/27 13:29:34;;;;;;;2.60;2.40;;;;;;;;;;5024290;28;20249;-78
2023/07/27 13:31:59;;;;;;;2.30;2.10;;;;;;;;;;5039234;28;20277;-78
2023/07/27 13:34:25;;;;;;;2.20;2.00;;;;;;;;;;5038876;28;20216;-78
2023/07/27 13:36:50;;;;;;;3.72;2.22;;;;;;;;;;5023765;28;20235;-77
2023/07/27 13:39:16;;;;;;;2.47;2.28;;;;;;;;;;5013337;28;20228;-77
2023/07/27 13:41:41;;;;;;;2.45;2.25;;;;;;;;;;5012660;28;20238;-79
2023/07/27 13:44:07;;;;;;;2.58;2.30;;;;;;;;;;5017427;28;20212;-79
2023/07/27 13:46:32;;;;;;;2.22;2.13;;;;;;;;;;5025245;28;20240;-79
2023/07/27 13:49:00;;;;;;;2.10;2.00;;;;;;;;;;5014345;28;20286;-78
2023/07/27 13:51:29;;;;;;;2.05;1.85;;;;;;;;;;5026430;28;20243;-79
2023/07/27 13:53:55;;;;;;;2.28;2.10;;;;;;;;;;5045861;28;20231;-78
2023/07/27 13:56:21;;;;;;;2.33;2.20;;;;;;;;;;5006217;28;20227;-79
2023/07/27 13:58:49;;;;;;;2.20;2.00;;;;;;;;;;5029818;28;20226;-78
2023/07/27 14:01:17;;;;;;;2.22;2.13;;;;;;;;;;5039028;28;20219;-77
2023/07/27 14:03:44;;;;;;;2.17;2.00;;;;;;;;;;5014335;28;20230;-77
2023/07/27 14:06:12;;;;;;;1.90;1.80;;;;;;;;;;5023666;28;20220;-76
2023/07/27 14:08:40;;;;;;;1.65;1.55;;;;;;;;;;5007448;28;20812;-77
2023/07/27 14:11:06;;;;;;;1.77;1.67;;;;;;;;;;5040192;28;20238;-79
2023/07/27 14:13:32;;;;;;;1.95;1.85;;;;;;;;;;5030539;28;20319;-77
2023/07/27 14:16:00;;;;;;;2.80;2.03;;;;;;;;;;5008764;28;20232;-79
2023/07/27 14:18:25;;;;;;;2.42;2.05;;;;;;;;;;5025767;28;20241;-76
2023/07/27 14:20:51;;;;;;;2.35;2.15;;;;;;;;;;5024988;28;20692;-78
2023/07/27 14:23:16;;;;;;;2.58;2.05;;;;;;;;;;5004347;28;20235;-79
2023/07/27 14:25:46;;;;;;;1.80;1.70;;;;;;;;;;5009206;28;20765;-79
2023/07/27 14:28:14;;;;;;;2.58;1.92;;;;;;;;;;5016902;28;20231;-78
2023/07/27 14:30:40;;;;;;;2.60;2.40;;;;;;;;;;5009838;28;20293;-78
2023/07/27 14:33:05;;;;;;;3.35;2.00;;;;;;;;;;5046130;28;20243;-78
2023/07/27 14:35:31;;;;;;;2.15;2.05;;;;;;;;;;5033394;28;20223;-78
2023/07/27 14:37:56;;;;;;;2.45;2.25;;;;;;;;;;5032633;28;20572;-78
2023/07/27 14:40:22;;;;;;;3.53;2.35;;;;;;;;;;5027131;28;20228;-79
2023/07/27 14:42:52;;;;;;;2.80;2.60;;;;;;;;;;5019217;28;20930;-78
2023/07/27 14:45:19;;;;;;;2.45;2.25;;;;;;;;;;5002357;28;20240;-78
2023/07/27 14:47:48;;;;;;;2.25;2.05;;;;;;;;;;5029739;28;20229;-78
2023/07/27 14:50:14;;;;;;;5.38;2.47;;;;;;;;;;5019544;28;20231;-78